Whiteman Air Force Base
KSZL : now visible

Airfield :











YOU CAN JOIN US ON...

 
LOGIN :

Register | Disclaimer

   EN    FR    IT 

 









Legend :    VFR   Marginal VFR   IFR   Intensive IFR   Very Intensive IFR
Visi :
Ceiling :
>= 8 km
>= 3000ft
5 to 8 km
1000 to 3000 ft
1500m to 5 km
500 to 1000 ft
800 to 1500m
200 to 500 ft
< 800m
< 200 ft
Symbols :   Thunderstorms  Fog  Heavy snow  Heavy precipitations  Wind > 20 kt






- Airport Elevation : 870 ft


KSZL - Whiteman Air Force Base

CURRENT METAR :
  • 200656Z 36011KT 10SM CLR M12/M19 A3056 RMK AO2A SLP367 T11241188 $

EXPIRED METARs :
  • 200556Z 36014KT 10SM CLR M12/M18 A3055 RMK AO2A SLP363 T11161182 11077 21116 400311116 52024 $
  • 200456Z 36020G25KT 10SM FEW100 M11/M18 A3052 RMK SLP353 T11091178 $

TAF TAF KSZL
Valid from the 20 at 03:00 until the 21 at 09:00 UTC


200300Z 2003/2109 01015G25KT 9999 FEW100 QNH3047INS
BECMG 2004/2005 01015G20KT 9999 SKC QNH3052INS
BECMG 2014/2015 02009KT 9999 SKC QNH3052INS
BECMG 2104/2105 27006KT 9999 SKC QNH3049INS TXM08/2021Z TNM14/2013Z
KZKC FIR / North America



MET'MAP, your aeronautical weather chart ! - Copyright ORBIFLY December 2007 - Disclaimer

ORBIFLY MET'MAP TEAM :

Programming & Development : Alexandra Zaïnal
Concept & original design : Baudouin d'Aumeries
Assistance for programming : Marc-Olivier Méhu
Technical & hardware support : Manuel Goepfert

Contact : metmap@orbifly.com




SOURCES & CREDITS :

   NOAA       Earth
Advisory